Time;durP1;ratioP1;P1;durP2;ratioP2;P2;SDS_P1;SDS_P2;PMS_P1;PMS_P2;Temp;Humidity;BMP_temperature;BMP_pressure;BME280_temperature;BME280_humidity;BME280_pressure;Samples;Min_cycle;Max_cycle;Signal;HPM_P1;HPM_P2
2022/08/14 00:00:43;;;;;;;11.70;6.68;;;;;;;20.50;53.77;101046.16;5042657;28;20108;-70
2022/08/14 00:03:17;;;;;;;9.13;6.95;;;;;;;20.47;53.26;101041.06;5044584;28;20120;-70
2022/08/14 00:05:42;;;;;;;11.38;6.85;;;;;;;20.44;54.20;101052.72;5041968;28;20489;-70
2022/08/14 00:08:08;;;;;;;10.43;6.40;;;;;;;20.43;54.24;101051.00;5053229;28;20082;-70
2022/08/14 00:10:33;;;;;;;11.85;7.13;;;;;;;20.28;54.98;101034.25;5047125;28;20055;-70
2022/08/14 00:12:58;;;;;;;9.45;6.63;;;;;;;20.37;54.33;101043.41;5045522;28;20037;-70
2022/08/14 00:15:33;;;;;;;12.45;7.43;;;;;;;20.28;54.47;101020.19;5053449;28;20029;-70
2022/08/14 00:17:59;;;;;;;7.63;6.68;;;;;;;20.30;55.06;101037.66;5046190;28;20123;-70
2022/08/14 00:20:28;;;;;;;7.78;6.97;;;;;;;20.25;55.25;101034.44;5044127;28;20390;-70
2022/08/14 00:22:53;;;;;;;8.68;7.28;;;;;;;20.21;55.11;101027.66;5040777;28;20040;-70
2022/08/14 00:25:19;;;;;;;7.40;6.63;;;;;;;20.16;55.84;101029.72;5044054;28;20021;-70
2022/08/14 00:27:44;;;;;;;8.27;7.10;;;;;;;20.12;55.96;101025.56;5054145;28;20029;-70
2022/08/14 00:30:11;;;;;;;8.45;6.90;;;;;;;20.05;55.96;101014.50;5048454;28;20028;-70
2022/08/14 00:32:37;;;;;;;8.30;7.10;;;;;;;20.05;56.15;101022.44;5033674;28;20124;-70
2022/08/14 00:35:04;;;;;;;9.23;6.57;;;;;;;20.02;56.05;101019.97;5050331;28;20054;-70
2022/08/14 00:37:31;;;;;;;10.65;7.00;;;;;;;19.92;56.58;101010.88;5049058;28;20542;-70
2022/08/14 00:39:56;;;;;;;10.55;6.75;;;;;;;19.91;56.28;101014.44;5041524;28;20903;-70
2022/08/14 00:42:22;;;;;;;7.32;6.63;;;;;;;19.80;57.12;101007.16;5045384;28;20074;-71
2022/08/14 00:44:48;;;;;;;11.00;7.38;;;;;;;19.83;57.14;101012.25;5046467;28;20166;-70
2022/08/14 00:47:15;;;;;;;9.27;7.68;;;;;;;19.84;56.91;101008.66;5050079;28;20116;-70
2022/08/14 00:49:42;;;;;;;8.32;7.40;;;;;;;19.81;56.72;101006.19;5053927;28;20112;-70
2022/08/14 00:52:08;;;;;;;12.10;7.45;;;;;;;19.80;56.86;100999.22;5046713;28;20147;-70
2022/08/14 00:54:36;;;;;;;8.48;7.68;;;;;;;19.77;57.51;100994.09;5052492;28;20021;-71
2022/08/14 00:57:02;;;;;;;11.82;7.50;;;;;;;19.69;57.63;100991.09;5053124;28;20419;-70
2022/08/14 00:59:27;;;;;;;10.77;7.10;;;;;;;19.63;57.76;100986.13;5052829;28;20376;-70
2022/08/14 01:01:56;;;;;;;10.05;7.18;;;;;;;19.64;58.19;100982.56;5044340;28;20034;-70
2022/08/14 01:04:22;;;;;;;12.43;7.70;;;;;;;19.58;58.09;100989.00;5034770;28;20033;-70
2022/08/14 01:06:50;;;;;;;8.55;7.60;;;;;;;19.54;57.63;100979.56;5035483;28;20163;-70
2022/08/14 01:09:21;;;;;;;9.57;7.65;;;;;;;19.54;58.03;100978.72;5040357;28;20060;-70
2022/08/14 01:11:48;;;;;;;8.40;6.85;;;;;;;19.48;58.12;100972.00;5031277;28;20026;-70
2022/08/14 01:14:13;;;;;;;8.35;7.45;;;;;;;19.49;58.23;100973.72;5033049;28;20025;-70
2022/08/14 01:16:39;;;;;;;7.95;7.25;;;;;;;19.49;58.27;100976.34;5033023;28;20039;-70
2022/08/14 01:21:48;;;;;;;7.97;7.13;;;;;;;19.37;59.05;100969.97;5031305;28;20037;-70
2022/08/14 01:24:14;;;;;;;11.85;7.90;;;;;;;19.34;58.98;100966.66;5032217;28;20030;-71
2022/08/14 01:26:41;;;;;;;9.95;7.95;;;;;;;19.27;58.42;100958.25;5031803;28;20080;-70
2022/08/14 01:29:08;;;;;;;8.40;7.50;;;;;;;19.33;59.11;100965.81;5033435;28;20017;-70
2022/08/14 01:31:39;;;;;;;10.80;7.32;;;;;;;19.34;59.63;100970.16;5032062;28;20025;-70
2022/08/14 01:34:06;;;;;;;12.35;7.82;;;;;;;19.26;59.56;100961.84;5037618;28;20424;-70
2022/08/14 01:36:36;;;;;;;10.85;7.63;;;;;;;19.26;60.15;100974.19;5039875;28;20087;-70
2022/08/14 01:39:08;;;;;;;15.10;7.85;;;;;;;19.26;59.55;100968.88;5018961;28;20052;-70
2022/08/14 01:41:35;;;;;;;11.68;7.97;;;;;;;19.18;59.41;100964.06;5032191;28;20481;-70
2022/08/14 01:44:04;;;;;;;11.60;7.35;;;;;;;19.12;60.39;100972.34;5031928;28;20050;-70
2022/08/14 01:46:35;;;;;;;15.23;7.47;;;;;;;19.10;60.51;100971.59;5030427;28;20025;-70
2022/08/14 01:49:04;;;;;;;11.20;8.00;;;;;;;19.05;61.02;100978.91;5038693;28;20025;-70
2022/08/14 01:51:31;;;;;;;11.43;8.02;;;;;;;18.99;60.39;100976.59;5032258;28;20469;-70
2022/08/14 01:54:00;;;;;;;12.98;8.02;;;;;;;18.98;60.65;100962.56;5030630;28;20038;-70
2022/08/14 01:56:35;;;;;;;15.05;8.20;;;;;;;19.01;60.34;100974.75;5045708;28;20077;-70
2022/08/14 01:59:01;;;;;;;15.27;7.47;;;;;;;19.04;60.51;100964.84;5036320;28;20029;-70
2022/08/14 02:01:26;;;;;;;13.73;7.65;;;;;;;19.03;60.26;100962.28;5032185;28;20615;-70
2022/08/14 02:03:52;;;;;;;14.85;7.80;;;;;;;18.98;60.17;100956.44;5030871;28;20028;-70
2022/08/14 02:06:17;;;;;;;13.43;7.63;;;;;;;18.95;60.31;100958.28;5032323;28;20021;-70
2022/08/14 02:08:43;;;;;;;8.65;7.55;;;;;;;18.93;60.62;100960.19;5030822;28;20040;-70
2022/08/14 02:11:16;;;;;;;10.10;7.50;;;;;;;18.84;60.64;100951.94;5031044;28;20017;-70
2022/08/14 02:13:47;;;;;;;9.70;7.40;;;;;;;18.79;60.33;100954.81;5031663;28;20381;-70
2022/08/14 02:16:16;;;;;;;11.10;7.43;;;;;;;18.80;60.60;100956.53;5038893;28;20388;-70
2022/08/14 02:18:42;;;;;;;8.40;7.40;;;;;;;18.72;60.62;100953.44;5038452;28;20464;-70
2022/08/14 02:21:08;;;;;;;9.70;7.07;;;;;;;18.64;61.12;100953.84;5037544;28;20604;-70
2022/08/14 02:23:34;;;;;;;9.95;7.68;;;;;;;18.63;61.50;100944.22;5031469;28;20025;-70
2022/08/14 02:26:01;;;;;;;9.40;7.88;;;;;;;18.49;61.64;100939.69;5036412;28;20037;-70
2022/08/14 02:28:30;;;;;;;10.38;7.82;;;;;;;18.52;62.22;100953.69;5040396;28;20029;-70
2022/08/14 02:30:57;;;;;;;10.13;7.68;;;;;;;18.52;62.80;100953.69;5024494;28;20049;-70
2022/08/14 02:33:23;;;;;;;9.05;8.00;;;;;;;18.52;63.55;100956.31;5029504;28;20021;-70
2022/08/14 02:35:48;;;;;;;13.93;8.63;;;;;;;18.50;64.44;100943.19;5030673;28;20021;-70
2022/08/14 02:38:14;;;;;;;16.90;8.45;;;;;;;18.49;63.92;100944.13;5035367;28;20408;-70
2022/08/14 02:40:39;;;;;;;15.02;8.85;;;;;;;18.41;64.10;100938.41;5043445;28;20080;-70
2022/08/14 02:43:05;;;;;;;10.35;7.93;;;;;;;18.44;63.79;100935.59;5027742;28;20046;-70
2022/08/14 02:45:34;;;;;;;12.65;8.25;;;;;;;18.37;64.23;100945.63;5031357;28;20033;-70
2022/08/14 02:48:02;;;;;;;9.95;8.30;;;;;;;18.37;63.91;100940.34;5034154;28;20033;-70
2022/08/14 02:50:28;;;;;;;10.50;8.10;;;;;;;18.39;63.82;100935.84;5038989;28;20021;-70
2022/08/14 02:52:54;;;;;;;12.02;8.30;;;;;;;18.34;63.21;100929.13;5030580;28;20025;-70
2022/08/14 02:55:20;;;;;;;8.95;7.18;;;;;;;18.33;62.52;100937.97;5037103;28;20111;-70
2022/08/14 02:57:50;;;;;;;12.07;7.55;;;;;;;18.30;62.89;100943.41;5031855;28;20079;-70
2022/08/14 03:00:15;;;;;;;7.60;6.90;;;;;;;18.25;62.49;100941.91;5035399;28;20090;-70
2022/08/14 03:02:41;;;;;;;8.07;7.28;;;;;;;18.25;62.31;100935.78;5031449;28;20481;-70
2022/08/14 03:05:07;;;;;;;9.13;7.10;;;;;;;18.13;62.03;100924.06;5031100;28;20060;-70
2022/08/14 03:07:32;;;;;;;9.13;6.88;;;;;;;18.17;62.73;100928.25;5030974;28;20539;-70
2022/08/14 03:09:58;;;;;;;8.00;7.15;;;;;;;18.10;62.64;100913.69;5031987;28;20165;-70
2022/08/14 03:12:25;;;;;;;12.32;6.97;;;;;;;18.16;62.38;100931.81;5030218;28;20124;-70
2022/08/14 03:14:51;;;;;;;8.07;6.65;;;;;;;18.18;62.68;100922.06;5031113;28;20033;-70
2022/08/14 03:17:17;;;;;;;9.15;7.30;;;;;;;18.17;62.53;100916.84;5034209;28;20021;-70
2022/08/14 03:19:43;;;;;;;8.48;7.10;;;;;;;18.13;62.94;100925.88;5033039;28;20409;-70
2022/08/14 03:22:08;;;;;;;7.82;7.10;;;;;;;18.02;63.35;100923.81;5029062;28;20022;-70
2022/08/14 03:24:35;;;;;;;9.63;6.97;;;;;;;18.02;63.20;100924.66;5031169;28;20631;-70
2022/08/14 03:27:01;;;;;;;8.55;7.13;;;;;;;18.02;63.04;100927.28;5031037;28;20477;-70
2022/08/14 03:29:27;;;;;;;9.48;7.13;;;;;;;18.00;62.98;100917.75;5031232;28;20030;-70
2022/08/14 03:31:53;;;;;;;8.65;7.18;;;;;;;18.00;62.89;100921.25;5028972;28;20018;-70
2022/08/14 03:34:22;;;;;;;9.60;7.65;;;;;;;18.01;63.20;100912.38;5031013;28;20079;-70
2022/08/14 03:36:53;;;;;;;8.63;7.40;;;;;;;18.08;63.81;100906.78;5031122;28;20124;-70
2022/08/14 03:39:20;;;;;;;9.23;7.65;;;;;;;18.07;62.34;100907.72;5030039;28;20493;-70
2022/08/14 03:41:46;;;;;;;7.57;6.88;;;;;;;18.09;62.95;100906.72;5030784;28;20025;-70
2022/08/14 03:44:11;;;;;;;8.10;7.03;;;;;;;18.08;63.10;100901.50;5030750;28;20041;-70
2022/08/14 03:46:37;;;;;;;7.72;7.00;;;;;;;18.04;62.67;100905.25;5029911;28;20088;-70
2022/08/14 03:49:04;;;;;;;12.57;7.53;;;;;;;18.04;62.30;100911.38;5031348;28;20053;-70
2022/08/14 03:51:31;;;;;;;10.50;7.15;;;;;;;18.02;62.88;100910.63;5028709;28;20436;-70
2022/08/14 03:53:59;;;;;;;9.07;7.50;;;;;;;17.96;62.54;100909.16;5032677;28;20075;-70
2022/08/14 03:56:26;;;;;;;8.60;7.38;;;;;;;17.93;62.21;100906.69;5034418;28;20417;-70
2022/08/14 03:58:56;;;;;;;9.95;6.93;;;;;;;17.87;62.80;100909.63;5034940;28;20048;-70
2022/08/14 04:01:24;;;;;;;8.40;7.55;;;;;;;17.87;62.88;100920.19;5037539;28;20588;-70
2022/08/14 04:03:51;;;;;;;9.52;7.20;;;;;;;17.84;62.84;100911.59;5034626;28;20452;-70
2022/08/14 04:06:19;;;;;;;9.30;7.68;;;;;;;17.78;62.90;100912.75;5034427;28;20029;-70
2022/08/14 04:08:45;;;;;;;7.97;7.18;;;;;;;17.74;62.91;100916.44;5034014;28;20021;-70
2022/08/14 04:11:12;;;;;;;7.80;7.00;;;;;;;17.66;63.80;100905.47;5034833;28;20057;-70
2022/08/14 04:13:40;;;;;;;10.32;7.32;;;;;;;17.63;64.16;100908.25;5033501;28;20025;-70
2022/08/14 04:16:24;;;;;;;8.98;8.05;;;;;;;17.63;65.01;100903.00;5031971;28;20029;-70
2022/08/14 04:18:52;;;;;;;8.95;8.07;;;;;;;17.62;64.69;100903.91;5034737;28;20083;-70
2022/08/14 04:21:23;;;;;;;13.32;8.10;;;;;;;17.62;65.45;100903.91;5032460;28;20021;-70
2022/08/14 04:23:51;;;;;;;10.18;8.18;;;;;;;17.58;65.65;100905.00;5034047;28;20026;-70
2022/08/14 04:26:20;;;;;;;8.80;7.88;;;;;;;17.54;66.44;100896.41;5033971;28;20108;-70
2022/08/14 04:28:48;;;;;;;12.80;8.43;;;;;;;17.49;66.25;100896.66;5034708;28;20028;-70
2022/08/14 04:31:13;;;;;;;10.07;9.07;;;;;;;17.45;66.00;100900.34;5034618;28;20029;-70
2022/08/14 04:33:39;;;;;;;8.88;7.97;;;;;;;17.46;65.83;100894.16;5034058;28;20071;-70
2022/08/14 04:36:04;;;;;;;10.63;8.55;;;;;;;17.47;65.50;100887.97;5033741;28;20465;-70
2022/08/14 04:43:34;;;;;;;;;;;;;;;17.59;62.91;100873.28;5032778;28;20091;-70
2022/08/14 04:44:17;;;;;;;10.70;7.93;;;;;;;17.62;65.52;100870.47;5022798;28;20387;-70
2022/08/14 04:48:11;;;;;;;9.02;7.72;;;;;;;17.73;64.90;100885.75;5034085;28;20025;-70
2022/08/14 04:49:31;;;;;;;9.68;8.55;;;;;;;17.77;65.47;100874.97;5031747;28;20044;-70
2022/08/14 04:51:58;;;;;;;10.32;8.30;;;;;;;17.86;65.57;100872.81;5029038;28;20843;-70
2022/08/14 04:54:27;;;;;;;9.73;8.25;;;;;;;17.93;65.03;100871.53;5033248;28;20043;-70
2022/08/14 04:56:54;;;;;;;13.50;9.00;;;;;;;17.93;64.76;100875.03;5034427;28;20026;-70
2022/08/14 04:59:21;;;;;;;11.57;8.52;;;;;;;18.01;64.34;100875.44;5033087;28;20048;-70
2022/08/14 05:01:46;;;;;;;9.38;8.02;;;;;;;18.07;65.02;100865.50;5033110;28;20036;-70
2022/08/14 05:04:11;;;;;;;9.75;8.15;;;;;;;18.12;64.22;100866.97;5030880;28;20397;-70
2022/08/14 05:06:38;;;;;;;11.05;8.07;;;;;;;18.12;64.23;100858.22;5032853;28;20033;-70
2022/08/14 05:09:04;;;;;;;12.60;8.43;;;;;;;18.18;64.40;100865.78;5036870;28;20077;-70
2022/08/14 05:11:32;;;;;;;10.70;8.30;;;;;;;18.27;64.46;100865.28;5031821;28;20025;-70
2022/08/14 05:13:58;;;;;;;10.35;8.52;;;;;;;18.29;64.28;100867.84;5033584;28;20116;-70
2022/08/14 05:16:29;;;;;;;9.52;8.52;;;;;;;18.35;64.28;100856.94;5037926;28;20025;-70
2022/08/14 05:18:55;;;;;;;11.00;8.15;;;;;;;18.37;64.76;100861.19;5032703;28;20112;-70
2022/08/14 05:21:21;;;;;;;10.13;8.43;;;;;;;18.39;64.74;100859.31;5033535;28;20112;-70
2022/08/14 05:23:46;;;;;;;10.15;7.53;;;;;;;18.43;64.74;100866.13;5032611;28;20036;-70
2022/08/14 05:26:12;;;;;;;9.90;7.85;;;;;;;18.45;65.06;100864.25;5031579;28;20384;-70
2022/08/14 05:28:42;;;;;;;9.15;8.10;;;;;;;18.53;64.21;100860.31;5031587;28;20084;-70
2022/08/14 05:31:07;;;;;;;10.23;8.00;;;;;;;18.59;64.17;100855.56;5033906;28;20462;-70
2022/08/14 05:33:34;;;;;;;12.13;7.95;;;;;;;18.67;64.55;100860.38;5031797;28;20056;-70
2022/08/14 05:36:06;;;;;;;9.35;8.18;;;;;;;18.75;64.82;100870.56;5040349;28;20024;-70
2022/08/14 05:38:35;;;;;;;10.65;7.70;;;;;;;18.80;64.65;100861.44;5032490;28;20025;-70
2022/08/14 05:41:11;;;;;;;9.27;8.38;;;;;;;18.85;63.69;100861.19;5032671;28;20021;-70
2022/08/14 05:43:39;;;;;;;9.10;7.85;;;;;;;18.95;63.95;100864.97;5031765;28;20095;-70
2022/08/14 05:46:04;;;;;;;11.43;7.82;;;;;;;19.01;63.68;100853.22;5032350;28;20041;-70
2022/08/14 05:48:30;;;;;;;11.93;7.97;;;;;;;19.09;63.85;100854.44;5031567;28;20427;-70
2022/08/14 05:50:55;;;;;;;10.57;8.52;;;;;;;19.12;62.26;100848.97;5032201;28;20017;-70
2022/08/14 05:53:22;;;;;;;9.75;8.57;;;;;;;19.24;62.27;100844.78;5028778;28;20033;-70
2022/08/14 05:55:48;;;;;;;11.27;8.60;;;;;;;19.28;62.69;100854.22;5032802;28;20021;-70
2022/08/14 05:58:13;;;;;;;11.57;8.68;;;;;;;19.34;62.56;100853.84;5032659;28;20033;-70
2022/08/14 06:00:41;;;;;;;10.98;8.90;;;;;;;19.40;62.88;100857.94;5034960;28;20166;-70
2022/08/14 06:03:10;;;;;;;9.75;8.68;;;;;;;19.46;62.31;100849.63;5031442;28;20456;-70
2022/08/14 06:05:35;;;;;;;10.57;8.25;;;;;;;19.54;62.05;100849.16;5042955;28;20075;-70
2022/08/14 06:08:01;;;;;;;10.70;9.60;;;;;;;19.61;61.65;100848.69;5031945;28;20116;-70
2022/08/14 06:10:28;;;;;;;10.70;8.60;;;;;;;19.69;61.91;100850.91;5032360;28;20101;-70
2022/08/14 06:12:54;;;;;;;10.50;9.00;;;;;;;19.79;61.12;100859.13;5029980;28;20029;-70
2022/08/14 06:15:19;;;;;;;10.48;9.43;;;;;;;19.87;61.24;100847.09;5030936;28;20112;-70
2022/08/14 06:17:46;;;;;;;12.00;9.52;;;;;;;19.90;60.41;100850.53;5032442;28;20147;-70
2022/08/14 06:20:13;;;;;;;10.60;9.43;;;;;;;20.03;60.32;100847.00;5031941;28;20029;-70
2022/08/14 06:22:40;;;;;;;13.57;8.90;;;;;;;20.08;60.76;100855.50;5027545;28;20062;-70
2022/08/14 06:25:07;;;;;;;12.52;9.32;;;;;;;20.18;60.37;100847.00;5018676;28;20038;-70
2022/08/14 06:27:40;;;;;;;10.10;9.02;;;;;;;20.26;59.66;100850.84;5030865;28;20025;-70
2022/08/14 06:30:08;;;;;;;11.05;8.93;;;;;;;20.36;59.28;100851.09;5032458;28;20022;-70
2022/08/14 06:32:33;;;;;;;11.23;9.45;;;;;;;20.40;59.06;100838.50;5031001;28;20088;-70
2022/08/14 06:34:59;;;;;;;10.57;8.82;;;;;;;20.49;59.08;100846.72;5034364;28;20025;-70
2022/08/14 06:37:26;;;;;;;12.10;9.30;;;;;;;20.54;58.66;100841.16;5033717;28;20030;-70
2022/08/14 06:39:51;;;;;;;11.40;8.25;;;;;;;20.61;58.80;100849.56;5032169;28;20047;-70
2022/08/14 06:42:16;;;;;;;10.05;8.73;;;;;;;20.69;58.56;100845.44;5029505;28;20025;-71
2022/08/14 06:44:42;;;;;;;9.98;8.98;;;;;;;20.73;58.02;100836.38;5031550;28;20048;-70
2022/08/14 06:47:07;;;;;;;9.85;8.95;;;;;;;20.86;57.70;100833.72;5032082;28;20096;-70
2022/08/14 06:49:32;;;;;;;11.50;9.02;;;;;;;20.88;58.05;100834.47;5040329;28;20393;-71
2022/08/14 06:51:59;;;;;;;10.13;8.32;;;;;;;20.96;57.25;100836.59;5034608;28;20035;-70
2022/08/14 06:54:24;;;;;;;11.85;8.65;;;;;;;20.98;56.89;100819.66;5029366;28;20020;-70
2022/08/14 06:56:50;;;;;;;10.02;8.85;;;;;;;21.13;56.52;100838.16;5030365;28;20411;-70
2022/08/14 06:59:15;;;;;;;10.07;8.90;;;;;;;21.19;56.67;100827.97;5031648;28;20112;-70
2022/08/14 07:07:08;;;;;;;9.88;8.85;;;;;;;21.49;56.14;100818.91;5031525;28;20083;-70
2022/08/14 07:09:34;;;;;;;9.70;8.02;;;;;;;21.60;55.86;100818.97;5029988;28;20041;-70
2022/08/14 07:11:59;;;;;;;9.25;8.35;;;;;;;21.66;55.50;100817.72;5029609;28;20030;-73
2022/08/14 07:14:24;;;;;;;11.57;8.60;;;;;;;21.75;54.46;100809.09;5031045;28;20354;-74
2022/08/14 07:16:50;;;;;;;8.93;8.13;;;;;;;21.85;55.03;100814.63;5029894;28;20484;-73
2022/08/14 07:19:16;;;;;;;9.13;8.23;;;;;;;21.90;55.78;100807.16;5030361;28;20498;-72
2022/08/14 07:21:41;;;;;;;15.63;9.50;;;;;;;21.97;53.97;100816.38;5031345;28;20051;-73
2022/08/14 07:24:07;;;;;;;11.27;8.18;;;;;;;22.06;54.17;100822.84;5030765;28;20030;-73
2022/08/14 07:26:32;;;;;;;10.57;8.35;;;;;;;22.09;54.37;100812.84;5030928;28;20037;-73
2022/08/14 07:28:57;;;;;;;12.32;7.90;;;;;;;22.22;53.76;100818.13;5033816;28;20033;-73
2022/08/14 07:31:23;;;;;;;9.15;8.23;;;;;;;22.30;53.23;100826.41;5033892;28;20416;-73
2022/08/14 07:33:48;;;;;;;8.98;8.05;;;;;;;22.34;53.58;100811.09;5035753;28;20056;-74
2022/08/14 07:36:14;;;;;;;10.40;8.55;;;;;;;22.48;52.24;100813.56;5035453;28;20519;-73
2022/08/14 07:38:40;;;;;;;9.27;8.10;;;;;;;22.57;52.26;100810.25;5034359;28;20047;-73
2022/08/14 07:41:07;;;;;;;12.40;8.80;;;;;;;22.67;51.51;100813.91;5033357;28;20026;-72
2022/08/14 07:43:33;;;;;;;8.25;7.45;;;;;;;22.77;51.51;100818.53;5036529;28;20049;-73
2022/08/14 07:45:59;;;;;;;10.90;7.78;;;;;;;22.82;51.76;100805.72;5042126;28;20030;-73
2022/08/14 07:48:24;;;;;;;9.20;7.47;;;;;;;22.93;51.12;100810.25;5036895;28;20076;-72
2022/08/14 07:50:49;;;;;;;8.38;7.57;;;;;;;23.00;51.58;100808.84;5034388;28;20025;-73
2022/08/14 07:53:16;;;;;;;9.10;8.20;;;;;;;23.04;51.81;100805.84;5033301;28;20083;-73
2022/08/14 07:55:42;;;;;;;12.75;7.47;;;;;;;23.18;50.53;100811.91;5023710;28;20021;-72
2022/08/14 07:58:08;;;;;;;7.90;7.10;;;;;;;23.32;50.09;100809.06;5021473;28;20033;-73
2022/08/14 08:00:33;;;;;;;8.05;7.25;;;;;;;23.41;51.29;100813.63;5016995;28;20104;-73
2022/08/14 08:03:00;;;;;;;8.52;7.45;;;;;;;23.52;50.15;100821.63;5013673;28;20053;-72
2022/08/14 08:05:26;;;;;;;10.13;6.57;;;;;;;23.61;48.37;100814.75;5028428;28;20013;-73
2022/08/14 08:07:53;;;;;;;10.10;8.10;;;;;;;23.74;48.11;100815.50;5027320;28;20439;-72
2022/08/14 08:10:30;;;;;;;7.88;6.90;;;;;;;23.78;48.94;100816.13;5031248;28;20025;-72
2022/08/14 08:13:06;;;;;;;10.45;8.15;;;;;;;23.90;47.39;100815.13;5035138;28;20032;-72
2022/08/14 08:15:35;;;;;;;8.05;7.25;;;;;;;24.00;46.95;100805.44;5029101;28;20084;-73
2022/08/14 08:18:03;;;;;;;8.73;7.28;;;;;;;24.03;47.65;100799.88;5031897;28;20044;-73
2022/08/14 08:20:30;;;;;;;9.65;7.30;;;;;;;24.18;46.76;100796.94;5033189;28;20041;-73
2022/08/14 08:22:57;;;;;;;8.77;7.28;;;;;;;24.26;46.27;100781.16;5032983;28;20021;-73
2022/08/14 08:25:28;;;;;;;8.20;7.40;;;;;;;24.35;47.06;100787.56;5038317;28;20380;-73
2022/08/14 08:27:55;;;;;;;13.30;7.07;;;;;;;24.52;45.77;100784.38;5028455;28;20470;-73
2022/08/14 08:30:20;;;;;;;8.38;7.22;;;;;;;24.58;45.21;100783.84;5042051;28;20037;-73
2022/08/14 08:32:45;;;;;;;8.02;7.22;;;;;;;24.68;45.49;100773.28;5034522;28;20029;-73
2022/08/14 08:35:20;;;;;;;8.52;7.72;;;;;;;24.79;46.31;100788.34;5033579;28;20487;-73
2022/08/14 08:37:47;;;;;;;12.05;7.63;;;;;;;24.91;45.21;100788.16;5034330;28;20060;-73
2022/08/14 08:40:28;;;;;;;8.10;7.35;;;;;;;25.12;44.57;100800.72;5033100;28;20083;-73
2022/08/14 08:42:53;;;;;;;8.68;7.47;;;;;;;25.26;42.58;100792.34;5033587;28;20045;-74
2022/08/14 08:45:20;;;;;;;7.82;7.03;;;;;;;25.38;43.16;100782.47;5035491;28;20366;-74
2022/08/14 08:47:46;;;;;;;10.45;7.00;;;;;;;25.50;42.18;100788.53;5034076;28;20096;-73
2022/08/14 08:50:18;;;;;;;9.85;6.78;;;;;;;25.50;43.14;100788.53;5032623;28;20022;-70
2022/08/14 08:52:51;;;;;;;7.85;7.15;;;;;;;25.70;41.61;100782.28;5032971;28;20063;-70
2022/08/14 08:55:27;;;;;;;;;;;;;;;25.77;42.12;100777.25;5033080;28;20078;-73
2022/08/14 08:58:07;;;;;;;9.65;7.63;;;;;;;25.96;42.06;100779.16;5034883;28;20031;-71
2022/08/14 09:00:35;;;;;;;11.25;7.25;;;;;;;26.04;41.70;100782.84;5034138;28;20022;-71
2022/08/14 09:03:03;;;;;;;8.05;7.25;;;;;;;26.17;40.75;100785.25;5033070;28;20033;-71
2022/08/14 09:05:29;;;;;;;8.27;7.47;;;;;;;26.34;39.93;100776.56;5032953;28;20029;-70
2022/08/14 09:08:11;;;;;;;8.25;7.45;;;;;;;26.44;41.61;100776.56;5033567;28;20025;-70
2022/08/14 09:10:37;;;;;;;9.13;6.82;;;;;;;26.61;41.56;100772.38;5032507;28;20373;-70
2022/08/14 09:13:03;;;;;;;8.35;6.85;;;;;;;26.75;40.54;100769.28;5033898;28;20509;-70
2022/08/14 09:15:29;;;;;;;7.95;7.20;;;;;;;26.91;40.51;100762.47;5025473;28;20136;-70
2022/08/14 09:17:54;;;;;;;8.77;7.40;;;;;;;27.06;39.71;100766.41;5032705;28;20088;-70
2022/08/14 09:20:20;;;;;;;11.52;7.00;;;;;;;27.10;39.74;100757.09;5030877;28;20033;-70
2022/08/14 09:22:46;;;;;;;7.18;6.53;;;;;;;27.09;39.97;100758.09;5031098;28;20454;-70
2022/08/14 09:25:11;;;;;;;9.20;6.60;;;;;;;27.12;38.70;100759.63;5026088;28;20072;-70
2022/08/14 09:27:37;;;;;;;9.90;7.00;;;;;;;27.20;38.60;100754.41;5033518;28;20064;-70
2022/08/14 09:30:08;;;;;;;8.82;6.25;;;;;;;27.17;39.02;100758.22;5033342;28;20029;-70
2022/08/14 09:33:02;;;;;;;7.85;6.50;;;;;;;27.30;39.14;100757.91;5029373;28;20029;-70
2022/08/14 09:35:40;;;;;;;8.15;6.65;;;;;;;27.40;38.67;100760.53;4996535;28;20044;-70
2022/08/14 09:38:21;;;;;;;8.95;6.60;;;;;;;27.49;38.96;100749.78;5031880;28;20025;-70
2022/08/14 09:40:58;;;;;;;9.43;6.95;;;;;;;27.61;40.15;100749.59;5034190;28;20026;-70
2022/08/14 09:43:42;;;;;;;8.20;7.38;;;;;;;27.72;39.89;100747.56;5031283;28;20045;-71
2022/08/14 09:46:07;;;;;;;12.23;6.75;;;;;;;27.82;39.02;100735.97;5032661;28;20116;-70
2022/08/14 09:48:34;;;;;;;11.68;7.07;;;;;;;27.91;38.85;100743.13;5033129;28;20513;-71
2022/08/14 09:51:00;;;;;;;7.50;6.65;;;;;;;28.00;38.83;100734.19;5033146;28;20033;-71
2022/08/14 09:53:43;;;;;;;8.82;6.95;;;;;;;27.99;38.11;100733.34;5029439;28;20051;-71
2022/08/14 09:56:11;;;;;;;8.30;5.90;;;;;;;27.95;37.40;100736.47;5032248;28;20410;-71
2022/08/14 09:58:42;;;;;;;6.97;6.20;;;;;;;28.10;37.62;100724.22;5037213;28;20039;-70
2022/08/14 10:01:16;;;;;;;7.07;6.20;;;;;;;28.30;36.49;100724.91;5031986;28;20021;-70
2022/08/14 10:03:51;;;;;;;10.10;5.95;;;;;;;28.51;35.33;100721.94;5017407;28;20051;-70
2022/08/14 10:06:19;;;;;;;6.63;6.03;;;;;;;28.72;36.16;100712.72;5031080;28;20029;-71
2022/08/14 10:08:47;;;;;;;9.23;6.60;;;;;;;28.80;36.95;100702.88;5032468;28;20438;-70
2022/08/14 10:11:23;;;;;;;6.60;6.00;;;;;;;29.03;36.42;100700.50;5032692;28;20060;-71
2022/08/14 10:13:53;;;;;;;6.38;5.65;;;;;;;29.16;36.62;100714.34;5031761;28;20032;-70
2022/08/14 10:16:24;;;;;;;8.25;6.32;;;;;;;29.22;36.28;100710.19;5031860;28;20068;-71
2022/08/14 10:19:05;;;;;;;6.68;6.18;;;;;;;29.37;35.50;100697.84;5032253;28;20029;-71
2022/08/14 10:21:30;;;;;;;9.80;5.95;;;;;;;29.60;33.96;100690.06;5026320;28;20076;-71
2022/08/14 10:23:55;;;;;;;6.35;5.78;;;;;;;29.78;35.03;100695.31;5024302;28;20484;-71
2022/08/14 10:26:21;;;;;;;8.00;6.32;;;;;;;29.93;34.81;100698.19;5028923;28;20506;-71
2022/08/14 10:28:49;;;;;;;9.13;6.22;;;;;;;30.06;34.00;100692.34;5031715;28;20027;-70
2022/08/14 10:31:28;;;;;;;7.30;6.00;;;;;;;30.17;35.01;100686.63;5031975;28;20057;-71
2022/08/14 10:33:59;;;;;;;6.65;5.90;;;;;;;30.37;34.00;100681.78;5031300;28;20548;-71
2022/08/14 10:36:32;;;;;;;6.47;5.88;;;;;;;30.46;34.25;100678.09;5031496;28;20038;-71
2022/08/14 10:39:00;;;;;;;7.53;6.38;;;;;;;30.59;33.79;100672.19;5032144;28;20108;-71
2022/08/14 10:41:40;;;;;;;9.50;6.40;;;;;;;30.69;34.54;100667.47;5030612;28;20047;-71
2022/08/14 10:44:13;;;;;;;7.25;6.60;;;;;;;30.74;33.76;100658.88;5031866;28;20045;-70
2022/08/14 10:46:41;;;;;;;6.72;6.22;;;;;;;30.74;32.90;100665.09;5031391;28;20033;-71
2022/08/14 10:49:17;;;;;;;8.13;6.63;;;;;;;30.81;34.15;100664.44;5031229;28;20041;-70
2022/08/14 10:51:54;;;;;;;11.25;6.63;;;;;;;30.98;34.01;100666.91;5031853;28;20108;-71
2022/08/14 10:54:30;;;;;;;7.32;6.55;;;;;;;31.14;33.59;100660.63;5031382;28;20076;-71
2022/08/14 10:57:10;;;;;;;8.90;6.22;;;;;;;31.30;34.13;100661.59;5031157;28;20026;-71
2022/08/14 10:59:44;;;;;;;7.03;6.43;;;;;;;31.47;33.00;100655.13;5031251;28;20044;-71
2022/08/14 11:02:20;;;;;;;7.10;6.50;;;;;;;31.43;32.13;100656.50;5030906;28;20022;-71
2022/08/14 11:05:06;;;;;;;6.78;6.10;;;;;;;31.39;32.37;100657.84;5031651;28;20026;-71
2022/08/14 11:07:38;;;;;;;8.52;5.78;;;;;;;31.33;33.04;100663.94;5031234;28;20112;-71
2022/08/14 11:10:08;;;;;;;6.68;5.38;;;;;;;31.36;32.02;100667.13;5031060;28;20425;-71
2022/08/14 11:12:46;;;;;;;7.00;5.93;;;;;;;31.46;31.79;100659.69;5031299;28;20025;-71
2022/08/14 11:15:21;;;;;;;6.65;6.05;;;;;;;31.39;31.77;100656.00;5029851;28;20030;-71
2022/08/14 11:17:48;;;;;;;7.03;5.85;;;;;;;31.51;31.77;100661.81;5036434;28;20025;-71
2022/08/14 11:20:15;;;;;;;6.22;5.63;;;;;;;31.69;30.22;100661.56;5031487;28;20076;-71
2022/08/14 11:22:41;;;;;;;6.57;5.40;;;;;;;31.95;31.56;100650.47;5030907;28;20025;-71
2022/08/14 11:25:09;;;;;;;5.63;4.82;;;;;;;32.22;31.09;100651.75;5029672;28;20395;-71
2022/08/14 11:27:38;;;;;;;6.03;5.43;;;;;;;32.21;30.57;100644.69;5028605;28;20033;-71
2022/08/14 11:30:07;;;;;;;8.93;5.35;;;;;;;32.24;29.49;100649.69;5031756;28;20022;-71
2022/08/14 11:32:32;;;;;;;6.25;5.15;;;;;;;32.16;29.32;100647.91;5031251;28;20021;-72
2022/08/14 11:35:01;;;;;;;5.43;5.00;;;;;;;31.82;29.88;100650.16;5030025;28;20470;-72
2022/08/14 11:37:28;;;;;;;6.22;5.63;;;;;;;31.71;29.84;100646.03;5031184;28;20124;-71